Time;durP1;ratioP1;P1;durP2;ratioP2;P2;SDS_P1;SDS_P2;PMS_P1;PMS_P2;Temp;Humidity;BMP_temperature;BMP_pressure;BME280_temperature;BME280_humidity;BME280_pressure;Samples;Min_cycle;Max_cycle;Signal;HPM_P1;HPM_P2
2022/09/29 00:00:34;;;;;;;9.13;6.63;;;;;;;;;;5078017;28;20215;-77
2022/09/29 00:03:01;;;;;;;7.93;6.07;;;;;;;;;;5085656;28;20180;-77
2022/09/29 00:05:27;;;;;;;9.70;6.70;;;;;;;;;;5084783;28;20713;-77
2022/09/29 00:07:53;;;;;;;9.93;6.47;;;;;;;;;;5051735;28;20252;-77
2022/09/29 00:10:20;;;;;;;8.30;6.80;;;;;;;;;;5084607;28;20869;-77
2022/09/29 00:12:46;;;;;;;8.33;5.50;;;;;;;;;;5075587;28;20188;-77
2022/09/29 00:15:12;;;;;;;8.20;5.70;;;;;;;;;;5082409;28;20181;-77
2022/09/29 00:17:39;;;;;;;10.37;6.27;;;;;;;;;;5078433;28;20714;-77
2022/09/29 00:20:05;;;;;;;7.97;5.57;;;;;;;;;;5077145;28;20721;-77
2022/09/29 00:22:31;;;;;;;8.90;6.20;;;;;;;;;;5081725;28;20176;-77
2022/09/29 00:24:57;;;;;;;10.33;6.77;;;;;;;;;;5075204;28;20223;-77
2022/09/29 00:27:23;;;;;;;9.17;6.57;;;;;;;;;;5083030;28;20177;-77
2022/09/29 00:29:50;;;;;;;7.50;6.00;;;;;;;;;;5068800;28;20237;-77
2022/09/29 00:32:16;;;;;;;7.23;5.93;;;;;;;;;;5086197;28;20241;-77
2022/09/29 00:34:42;;;;;;;8.50;5.70;;;;;;;;;;5085365;28;20203;-77
2022/09/29 00:37:08;;;;;;;9.87;5.80;;;;;;;;;;5084258;28;20209;-77
2022/09/29 00:39:34;;;;;;;7.70;6.20;;;;;;;;;;5086387;28;20203;-76
2022/09/29 00:42:00;;;;;;;6.90;5.50;;;;;;;;;;5048907;28;20191;-77
2022/09/29 00:44:45;;;;;;;7.47;5.77;;;;;;;;;;5085039;28;20173;-76
2022/09/29 00:47:15;;;;;;;6.37;5.00;;;;;;;;;;5078975;28;20294;-77
2022/09/29 00:50:02;;;;;;;8.73;5.90;;;;;;;;;;5086194;28;20204;-77
2022/09/29 00:52:37;;;;;;;7.03;5.53;;;;;;;;;;5086997;28;20230;-77
2022/09/29 00:55:13;;;;;;;6.27;5.27;;;;;;;;;;5084593;28;20214;-77
2022/09/29 00:58:00;;;;;;;6.83;5.60;;;;;;;;;;5085524;28;20275;-77
2022/09/29 01:00:27;;;;;;;8.83;5.60;;;;;;;;;;5088158;28;20247;-77
2022/09/29 01:02:56;;;;;;;7.90;5.50;;;;;;;;;;5090332;28;20200;-76
2022/09/29 01:05:27;;;;;;;5.70;5.03;;;;;;;;;;5084269;28;20201;-76
2022/09/29 01:07:53;;;;;;;6.97;5.40;;;;;;;;;;5086865;28;20183;-77
2022/09/29 01:10:19;;;;;;;6.77;5.07;;;;;;;;;;5081726;28;20213;-77
2022/09/29 01:12:47;;;;;;;5.47;4.70;;;;;;;;;;5080361;28;20177;-77
2022/09/29 01:15:14;;;;;;;8.33;5.53;;;;;;;;;;5083935;28;20196;-76
2022/09/29 01:17:40;;;;;;;7.10;4.80;;;;;;;;;;5086079;28;20203;-77
2022/09/29 01:20:15;;;;;;;7.00;5.07;;;;;;;;;;5080134;28;20248;-77
2022/09/29 01:22:58;;;;;;;7.33;5.50;;;;;;;;;;5083701;28;20234;-77
2022/09/29 01:25:47;;;;;;;6.40;5.17;;;;;;;;;;5091075;28;20788;-77
2022/09/29 01:28:32;;;;;;;6.67;5.27;;;;;;;;;;5090882;28;20185;-77
2022/09/29 01:31:20;;;;;;;7.47;4.97;;;;;;;;;;5083760;28;20235;-76
2022/09/29 01:33:52;;;;;;;6.00;4.53;;;;;;;;;;5084653;28;20233;-77
2022/09/29 01:36:37;;;;;;;6.10;4.40;;;;;;;;;;5090514;28;20196;-76
2022/09/29 01:39:06;;;;;;;5.67;4.50;;;;;;;;;;5090369;28;20810;-77
2022/09/29 01:41:43;;;;;;;7.47;4.73;;;;;;;;;;5090582;28;20196;-77
2022/09/29 01:44:24;;;;;;;5.23;4.40;;;;;;;;;;5088093;28;20185;-77
2022/09/29 01:46:56;;;;;;;7.83;4.60;;;;;;;;;;5087045;28;20196;-77
2022/09/29 01:49:24;;;;;;;6.57;5.03;;;;;;;;;;5056444;28;20204;-76
2022/09/29 01:51:59;;;;;;;6.07;4.37;;;;;;;;;;5088325;28;20193;-76
2022/09/29 01:54:29;;;;;;;10.17;4.73;;;;;;;;;;5087836;28;20176;-77
2022/09/29 01:56:58;;;;;;;7.53;4.83;;;;;;;;;;5067780;28;20206;-77
2022/09/29 01:59:28;;;;;;;6.23;5.17;;;;;;;;;;5088426;28;20184;-77
2022/09/29 02:01:58;;;;;;;8.13;4.70;;;;;;;;;;5070046;28;20181;-77
2022/09/29 02:04:44;;;;;;;10.33;5.40;;;;;;;;;;5088315;28;20169;-76
2022/09/29 02:07:21;;;;;;;7.30;4.90;;;;;;;;;;5088898;28;20604;-77
2022/09/29 02:09:49;;;;;;;5.70;4.90;;;;;;;;;;5064645;28;20215;-77
2022/09/29 02:12:17;;;;;;;6.13;5.27;;;;;;;;;;5079506;28;20219;-77
2022/09/29 02:14:46;;;;;;;8.33;6.60;;;;;;;;;;5081501;28;20202;-77
2022/09/29 02:17:18;;;;;;;6.57;5.80;;;;;;;;;;5082291;28;20201;-77
2022/09/29 02:19:45;;;;;;;8.27;5.57;;;;;;;;;;5081850;28;20201;-76
2022/09/29 02:22:12;;;;;;;9.17;7.20;;;;;;;;;;5088420;28;20165;-76
2022/09/29 02:24:38;;;;;;;7.97;6.83;;;;;;;;;;5081290;28;20251;-77
2022/09/29 02:27:04;;;;;;;10.07;7.73;;;;;;;;;;5087515;28;20208;-77
2022/09/29 02:29:32;;;;;;;12.37;7.13;;;;;;;;;;5087476;28;20729;-77
2022/09/29 02:32:01;;;;;;;8.50;6.80;;;;;;;;;;5074675;28;20189;-76
2022/09/29 02:34:29;;;;;;;7.60;6.37;;;;;;;;;;5080508;28;20184;-77
2022/09/29 02:36:58;;;;;;;8.33;6.50;;;;;;;;;;5088015;28;20575;-77
2022/09/29 02:39:33;;;;;;;9.87;6.60;;;;;;;;;;5069751;28;20652;-76
2022/09/29 02:42:26;;;;;;;8.97;6.10;;;;;;;;;;5083001;28;20299;-76
2022/09/29 02:44:55;;;;;;;8.63;6.93;;;;;;;;;;5080750;28;20196;-77
2022/09/29 02:47:33;;;;;;;7.77;6.17;;;;;;;;;;5088083;28;20229;-76
2022/09/29 02:50:21;;;;;;;7.27;6.27;;;;;;;;;;5087114;28;20204;-76
2022/09/29 02:52:54;;;;;;;6.80;6.00;;;;;;;;;;5076437;28;20192;-76
2022/09/29 02:55:23;;;;;;;8.37;6.07;;;;;;;;;;5075565;28;20185;-76
2022/09/29 02:57:52;;;;;;;7.70;5.70;;;;;;;;;;5079852;28;20265;-76
2022/09/29 03:00:19;;;;;;;9.00;5.73;;;;;;;;;;5087780;28;20300;-76
2022/09/29 03:02:46;;;;;;;6.93;5.90;;;;;;;;;;5050491;28;20184;-77
2022/09/29 03:05:13;;;;;;;6.40;5.43;;;;;;;;;;5070545;28;20195;-77
2022/09/29 03:07:40;;;;;;;7.40;6.00;;;;;;;;;;5069707;28;20271;-76
2022/09/29 03:10:07;;;;;;;7.50;6.20;;;;;;;;;;5088198;28;20196;-76
2022/09/29 03:12:33;;;;;;;7.37;6.00;;;;;;;;;;5086318;28;21421;-76
2022/09/29 03:15:00;;;;;;;9.70;6.43;;;;;;;;;;5078682;28;21044;-76
2022/09/29 03:17:26;;;;;;;7.27;6.20;;;;;;;;;;5085637;28;20197;-76
2022/09/29 03:19:52;;;;;;;8.50;6.03;;;;;;;;;;5060667;28;20289;-76
2022/09/29 03:22:18;;;;;;;5.87;5.27;;;;;;;;;;5061292;28;20575;-76
2022/09/29 03:24:44;;;;;;;6.70;5.20;;;;;;;;;;5058277;28;20173;-76
2022/09/29 03:27:11;;;;;;;6.43;5.47;;;;;;;;;;5079708;28;20665;-76
2022/09/29 03:29:37;;;;;;;6.93;5.50;;;;;;;;;;5087198;28;20200;-76
2022/09/29 03:32:04;;;;;;;9.17;6.10;;;;;;;;;;5077249;28;20185;-76
2022/09/29 03:34:31;;;;;;;7.67;5.77;;;;;;;;;;5068143;28;20220;-77
2022/09/29 03:36:57;;;;;;;8.23;6.07;;;;;;;;;;5079375;28;20814;-76
2022/09/29 03:39:24;;;;;;;8.70;6.47;;;;;;;;;;5086056;28;20183;-77
2022/09/29 03:41:50;;;;;;;7.00;5.70;;;;;;;;;;5088971;28;20173;-76
2022/09/29 03:44:16;;;;;;;7.33;5.80;;;;;;;;;;5085293;28;20173;-76
2022/09/29 03:46:43;;;;;;;6.00;5.33;;;;;;;;;;5085308;28;20173;-76
2022/09/29 03:49:12;;;;;;;7.60;5.50;;;;;;;;;;5074806;28;20165;-76
2022/09/29 03:51:38;;;;;;;7.27;5.27;;;;;;;;;;5060194;28;20199;-76
2022/09/29 03:54:05;;;;;;;7.07;5.70;;;;;;;;;;5085092;28;20172;-76
2022/09/29 03:56:31;;;;;;;7.70;5.77;;;;;;;;;;5070104;28;20204;-76
2022/09/29 03:58:57;;;;;;;8.43;5.70;;;;;;;;;;5087915;28;20172;-76
2022/09/29 04:01:23;;;;;;;8.47;6.20;;;;;;;;;;5087984;28;20204;-76
2022/09/29 04:03:50;;;;;;;7.63;6.00;;;;;;;;;;5080135;28;20728;-76
2022/09/29 04:06:16;;;;;;;7.90;7.10;;;;;;;;;;5066738;28;20192;-76
2022/09/29 04:08:42;;;;;;;8.83;7.43;;;;;;;;;;5085174;28;20223;-76
2022/09/29 04:11:08;;;;;;;9.87;6.97;;;;;;;;;;5087686;28;20583;-76
2022/09/29 04:13:35;;;;;;;7.53;6.60;;;;;;;;;;5087819;28;20184;-76
2022/09/29 04:16:02;;;;;;;8.70;7.37;;;;;;;;;;5087999;28;20184;-77
2022/09/29 04:18:28;;;;;;;7.57;6.77;;;;;;;;;;5087808;28;20169;-76
2022/09/29 04:20:59;;;;;;;9.37;5.80;;;;;;;;;;5087469;28;20204;-77
2022/09/29 04:23:28;;;;;;;8.50;6.70;;;;;;;;;;5087182;28;20199;-76
2022/09/29 04:25:54;;;;;;;8.83;6.70;;;;;;;;;;5087399;28;20276;-77
2022/09/29 04:28:21;;;;;;;9.53;6.60;;;;;;;;;;5087859;28;20268;-76
2022/09/29 04:30:47;;;;;;;10.03;6.80;;;;;;;;;;5087624;28;20192;-76
2022/09/29 04:33:13;;;;;;;9.63;6.97;;;;;;;;;;5086199;28;20176;-76
2022/09/29 04:35:39;;;;;;;7.10;5.60;;;;;;;;;;5075696;28;20258;-76
2022/09/29 04:38:07;;;;;;;6.47;5.77;;;;;;;;;;5080799;28;21179;-76
2022/09/29 04:40:34;;;;;;;9.13;6.33;;;;;;;;;;5085300;28;20227;-77
2022/09/29 04:43:00;;;;;;;7.90;6.57;;;;;;;;;;5077566;28;20186;-76
2022/09/29 04:45:26;;;;;;;6.53;5.63;;;;;;;;;;5083976;28;20169;-76
2022/09/29 04:47:53;;;;;;;6.13;5.53;;;;;;;;;;5084933;28;20192;-76
2022/09/29 04:50:19;;;;;;;7.17;6.20;;;;;;;;;;5063076;28;20228;-76
2022/09/29 04:52:45;;;;;;;6.93;6.20;;;;;;;;;;5080603;28;20755;-76
2022/09/29 04:55:12;;;;;;;8.00;6.33;;;;;;;;;;5085924;28;20659;-76
2022/09/29 04:57:38;;;;;;;10.90;7.30;;;;;;;;;;5081101;28;20675;-76
2022/09/29 05:00:06;;;;;;;9.73;6.80;;;;;;;;;;5081566;28;20235;-76
2022/09/29 05:02:32;;;;;;;7.93;5.93;;;;;;;;;;5084860;28;20229;-77
2022/09/29 05:04:58;;;;;;;7.00;5.90;;;;;;;;;;5068534;28;20204;-76
2022/09/29 05:07:25;;;;;;;7.97;6.27;;;;;;;;;;5081749;28;20198;-76
2022/09/29 05:09:51;;;;;;;7.63;5.87;;;;;;;;;;5083364;28;20287;-76
2022/09/29 05:12:17;;;;;;;7.23;5.90;;;;;;;;;;5080650;28;20264;-76
2022/09/29 05:14:43;;;;;;;7.20;6.00;;;;;;;;;;5086146;28;20184;-76
2022/09/29 05:17:09;;;;;;;7.03;6.00;;;;;;;;;;5086888;28;20215;-76
2022/09/29 05:19:35;;;;;;;8.07;6.10;;;;;;;;;;5087077;28;20189;-76
2022/09/29 05:22:02;;;;;;;6.73;5.63;;;;;;;;;;5084669;28;20182;-76
2022/09/29 05:24:28;;;;;;;7.73;5.93;;;;;;;;;;5059834;28;20180;-76
2022/09/29 05:26:54;;;;;;;8.83;5.73;;;;;;;;;;5080135;28;20181;-76
2022/09/29 05:29:22;;;;;;;9.23;6.27;;;;;;;;;;5083222;28;20559;-76
2022/09/29 05:31:48;;;;;;;11.00;6.30;;;;;;;;;;5085170;28;20191;-76
2022/09/29 05:34:14;;;;;;;7.03;5.80;;;;;;;;;;5085815;28;20276;-76
2022/09/29 05:36:41;;;;;;;10.13;6.63;;;;;;;;;;5084650;28;20243;-77
2022/09/29 05:39:07;;;;;;;9.50;6.33;;;;;;;;;;5082665;28;20656;-78
2022/09/29 05:41:34;;;;;;;7.67;6.57;;;;;;;;;;5080023;28;20209;-80
2022/09/29 05:44:00;;;;;;;9.93;6.93;;;;;;;;;;5076381;28;20181;-77
2022/09/29 05:46:26;;;;;;;7.27;6.57;;;;;;;;;;5072539;28;20249;-78
2022/09/29 05:48:53;;;;;;;7.57;6.00;;;;;;;;;;5076637;28;20172;-78
2022/09/29 05:51:20;;;;;;;7.43;6.20;;;;;;;;;;5085833;28;20738;-78
2022/09/29 05:53:46;;;;;;;9.20;6.33;;;;;;;;;;5060048;28;20188;-78
2022/09/29 05:56:14;;;;;;;7.80;6.33;;;;;;;;;;5055197;28;20200;-77
2022/09/29 05:58:41;;;;;;;7.73;6.50;;;;;;;;;;5074650;28;20185;-78
2022/09/29 06:01:08;;;;;;;6.73;5.97;;;;;;;;;;5090544;28;20212;-77
2022/09/29 06:03:35;;;;;;;8.77;6.13;;;;;;;;;;5081740;28;20280;-76
2022/09/29 06:06:07;;;;;;;7.83;6.40;;;;;;;;;;5086951;28;20184;-76
2022/09/29 06:08:33;;;;;;;7.20;6.33;;;;;;;;;;5087660;28;20189;-76
2022/09/29 06:11:03;;;;;;;8.00;6.37;;;;;;;;;;5088021;28;20281;-77
2022/09/29 06:13:30;;;;;;;6.90;6.20;;;;;;;;;;5082370;28;20177;-75
2022/09/29 06:15:57;;;;;;;7.50;6.37;;;;;;;;;;5086434;28;20659;-76
2022/09/29 06:18:24;;;;;;;8.47;7.10;;;;;;;;;;5084209;28;20655;-79
2022/09/29 06:20:50;;;;;;;10.27;7.30;;;;;;;;;;5078890;28;20617;-75
2022/09/29 06:23:16;;;;;;;8.53;6.23;;;;;;;;;;5080998;28;20253;-76
2022/09/29 06:25:42;;;;;;;9.03;6.80;;;;;;;;;;5084695;28;20222;-80
2022/09/29 06:28:09;;;;;;;8.43;6.40;;;;;;;;;;5053335;28;20656;-78
2022/09/29 06:30:35;;;;;;;10.63;6.53;;;;;;;;;;5082130;28;20700;-78
2022/09/29 06:33:01;;;;;;;7.63;6.30;;;;;;;;;;5062636;28;20639;-78
2022/09/29 06:38:12;;;;;;;8.73;7.10;;;;;;;;;;5061050;28;20307;-77
2022/09/29 06:40:38;;;;;;;8.93;6.57;;;;;;;;;;5081957;28;20245;-76
2022/09/29 06:43:04;;;;;;;8.00;6.60;;;;;;;;;;5075429;28;20256;-76
2022/09/29 06:45:31;;;;;;;7.77;6.90;;;;;;;;;;5073608;28;20184;-76
2022/09/29 06:48:02;;;;;;;8.77;6.20;;;;;;;;;;5041298;28;20562;-76
2022/09/29 06:50:28;;;;;;;10.93;7.80;;;;;;;;;;5084850;28;20196;-76
2022/09/29 06:52:54;;;;;;;10.73;8.13;;;;;;;;;;5085726;28;20229;-76
2022/09/29 06:55:21;;;;;;;10.03;7.23;;;;;;;;;;5084795;28;20219;-76
2022/09/29 06:57:47;;;;;;;9.73;7.50;;;;;;;;;;5082344;28;20585;-77
2022/09/29 07:00:13;;;;;;;12.47;8.10;;;;;;;;;;5082446;28;20685;-76
2022/09/29 07:02:39;;;;;;;10.93;8.20;;;;;;;;;;5059697;28;20189;-76
2022/09/29 07:05:06;;;;;;;10.60;7.90;;;;;;;;;;5079605;28;20187;-76
2022/09/29 07:07:32;;;;;;;9.17;7.57;;;;;;;;;;5080119;28;20185;-75
2022/09/29 07:09:58;;;;;;;13.10;8.80;;;;;;;;;;5078896;28;20234;-76
2022/09/29 07:12:25;;;;;;;13.60;9.80;;;;;;;;;;5082420;28;20241;-76
2022/09/29 07:14:51;;;;;;;11.50;9.10;;;;;;;;;;5083142;28;20275;-77
2022/09/29 07:17:17;;;;;;;13.77;9.77;;;;;;;;;;5070878;28;20290;-76
2022/09/29 07:19:44;;;;;;;15.40;9.10;;;;;;;;;;5066811;28;20300;-76
2022/09/29 07:22:10;;;;;;;14.03;8.50;;;;;;;;;;5066501;28;20225;-77
2022/09/29 07:24:36;;;;;;;13.73;9.17;;;;;;;;;;5078085;28;20172;-77
2022/09/29 07:27:02;;;;;;;11.73;8.17;;;;;;;;;;5076344;28;20272;-76
2022/09/29 07:29:31;;;;;;;10.33;8.70;;;;;;;;;;5083786;28;20315;-77
2022/09/29 07:31:59;;;;;;;10.10;8.40;;;;;;;;;;5057291;28;20299;-77
2022/09/29 07:34:25;;;;;;;13.07;8.47;;;;;;;;;;5075451;28;20597;-77
2022/09/29 07:36:51;;;;;;;12.57;10.00;;;;;;;;;;5078374;28;20289;-77
2022/09/29 07:39:19;;;;;;;11.30;8.97;;;;;;;;;;5083029;28;20172;-77
2022/09/29 07:41:45;;;;;;;12.57;8.00;;;;;;;;;;5070095;28;20208;-77
2022/09/29 07:44:12;;;;;;;8.77;7.30;;;;;;;;;;5078440;28;20197;-77
2022/09/29 07:46:38;;;;;;;10.67;8.80;;;;;;;;;;5074733;28;20181;-77
2022/09/29 07:49:04;;;;;;;11.13;8.40;;;;;;;;;;5075638;28;20212;-77
2022/09/29 07:51:31;;;;;;;10.13;7.80;;;;;;;;;;5075271;28;20205;-77
2022/09/29 07:54:01;;;;;;;10.73;8.10;;;;;;;;;;5075907;28;20177;-77
2022/09/29 07:56:27;;;;;;;11.13;8.00;;;;;;;;;;5074456;28;20227;-77
2022/09/29 07:58:55;;;;;;;13.13;9.40;;;;;;;;;;5076529;28;20189;-77
2022/09/29 08:01:21;;;;;;;10.67;8.37;;;;;;;;;;5075368;28;23948;-77
2022/09/29 08:03:52;;;;;;;11.07;7.40;;;;;;;;;;5077406;28;20250;-77
2022/09/29 08:06:18;;;;;;;12.30;8.43;;;;;;;;;;5074107;28;20195;-77
2022/09/29 08:08:45;;;;;;;11.97;9.43;;;;;;;;;;5075738;28;20281;-77
2022/09/29 08:11:12;;;;;;;12.20;10.07;;;;;;;;;;5075646;28;20202;-77
2022/09/29 08:13:39;;;;;;;13.80;10.37;;;;;;;;;;5077200;28;20532;-77
2022/09/29 08:16:06;;;;;;;13.87;10.40;;;;;;;;;;5075387;28;20185;-77
2022/09/29 08:18:33;;;;;;;14.20;10.57;;;;;;;;;;5077140;28;21162;-77
2022/09/29 08:21:00;;;;;;;12.80;9.80;;;;;;;;;;5075332;28;20193;-77
2022/09/29 08:23:26;;;;;;;14.07;11.00;;;;;;;;;;5059119;28;20189;-77
2022/09/29 08:26:06;;;;;;;14.03;10.77;;;;;;;;;;5074906;28;20238;-77
2022/09/29 08:28:33;;;;;;;13.40;11.23;;;;;;;;;;5075235;28;20180;-77
2022/09/29 08:31:07;;;;;;;13.87;11.63;;;;;;;;;;5075040;28;20857;-77
2022/09/29 08:33:33;;;;;;;15.43;11.10;;;;;;;;;;5075305;28;20173;-77
2022/09/29 08:36:00;;;;;;;14.30;12.00;;;;;;;;;;5077079;28;20609;-77
2022/09/29 08:38:27;;;;;;;14.97;10.80;;;;;;;;;;5076570;28;20705;-76
2022/09/29 08:40:56;;;;;;;11.60;9.73;;;;;;;;;;5079717;28;20201;-77
2022/09/29 08:43:25;;;;;;;11.37;10.13;;;;;;;;;;5076025;28;20604;-76
2022/09/29 08:46:11;;;;;;;13.83;10.60;;;;;;;;;;5078310;28;20200;-76
2022/09/29 08:48:44;;;;;;;9.87;8.77;;;;;;;;;;5019598;28;20200;-76
2022/09/29 08:51:23;;;;;;;9.83;8.80;;;;;;;;;;5057917;28;20666;-77
2022/09/29 08:53:53;;;;;;;13.17;9.30;;;;;;;;;;5075291;28;20882;-77
2022/09/29 08:56:20;;;;;;;11.80;9.33;;;;;;;;;;5073432;28;20263;-77
2022/09/29 08:58:46;;;;;;;14.90;10.90;;;;;;;;;;5073697;28;21076;-77
2022/09/29 09:01:15;;;;;;;13.30;10.43;;;;;;;;;;5076205;28;20212;-77
2022/09/29 09:03:47;;;;;;;12.77;8.90;;;;;;;;;;5055154;28;20189;-77
2022/09/29 09:06:13;;;;;;;12.27;9.57;;;;;;;;;;5056041;28;20232;-77
2022/09/29 09:08:41;;;;;;;12.60;10.00;;;;;;;;;;5075182;28;20189;-77
2022/09/29 09:11:26;;;;;;;14.20;10.73;;;;;;;;;;5074154;28;20200;-77
2022/09/29 09:14:15;;;;;;;17.60;12.13;;;;;;;;;;5076259;28;20757;-76
2022/09/29 09:16:50;;;;;;;16.60;12.20;;;;;;;;;;5074417;28;20334;-77
2022/09/29 09:19:35;;;;;;;16.00;12.20;;;;;;;;;;5061197;28;20184;-76
2022/09/29 09:22:14;;;;;;;17.33;12.83;;;;;;;;;;5060909;28;20215;-77
2022/09/29 09:24:40;;;;;;;16.97;12.90;;;;;;;;;;5080313;28;20591;-78
2022/09/29 09:27:12;;;;;;;13.30;11.03;;;;;;;;;;5072360;28;20176;-74
2022/09/29 09:29:43;;;;;;;15.00;12.17;;;;;;;;;;5078900;28;20291;-74
2022/09/29 09:32:10;;;;;;;14.83;11.80;;;;;;;;;;5080262;28;20181;-74
2022/09/29 09:34:48;;;;;;;17.73;13.03;;;;;;;;;;5078599;28;20212;-75
2022/09/29 09:37:21;;;;;;;17.07;13.67;;;;;;;;;;5078295;28;20545;-75
2022/09/29 09:39:51;;;;;;;17.73;13.23;;;;;;;;;;5062344;28;20208;-77
2022/09/29 09:42:23;;;;;;;15.40;12.73;;;;;;;;;;5077798;28;20180;-77
2022/09/29 09:44:52;;;;;;;17.70;12.97;;;;;;;;;;5080529;28;20195;-78
2022/09/29 09:47:26;;;;;;;15.60;12.70;;;;;;;;;;5067852;28;20211;-79
2022/09/29 09:49:55;;;;;;;13.50;11.67;;;;;;;;;;5044071;28;20592;-78
2022/09/29 09:52:40;;;;;;;15.83;11.57;;;;;;;;;;5075346;28;20193;-74
2022/09/29 09:55:10;;;;;;;12.30;10.83;;;;;;;;;;5078299;28;20659;-73
2022/09/29 09:57:42;;;;;;;11.33;10.10;;;;;;;;;;5077075;28;20223;-73
2022/09/29 10:00:12;;;;;;;13.87;10.33;;;;;;;;;;5084540;28;20711;-76
2022/09/29 10:02:43;;;;;;;13.00;11.10;;;;;;;;;;5079247;28;20714;-77
2022/09/29 10:05:13;;;;;;;13.37;9.73;;;;;;;;;;5077597;28;20200;-76
2022/09/29 10:07:39;;;;;;;15.23;10.87;;;;;;;;;;5074389;28;20188;-80
2022/09/29 10:10:13;;;;;;;15.77;10.87;;;;;;;;;;5035825;28;20637;-75
2022/09/29 10:12:39;;;;;;;14.13;10.70;;;;;;;;;;5079496;28;20185;-75
2022/09/29 10:15:13;;;;;;;11.17;9.00;;;;;;;;;;5082204;28;20173;-74
2022/09/29 10:17:42;;;;;;;10.40;8.83;;;;;;;;;;5079864;28;20205;-73
2022/09/29 10:20:08;;;;;;;10.43;9.10;;;;;;;;;;5084708;28;20208;-73
2022/09/29 10:22:35;;;;;;;12.10;10.07;;;;;;;;;;5081433;28;20200;-73
2022/09/29 10:25:14;;;;;;;14.10;11.17;;;;;;;;;;5076877;28;20208;-73
2022/09/29 10:27:42;;;;;;;12.47;9.37;;;;;;;;;;5072660;28;20238;-73
2022/09/29 10:30:22;;;;;;;12.60;9.60;;;;;;;;;;5081298;28;20225;-74
2022/09/29 10:32:51;;;;;;;10.43;8.90;;;;;;;;;;5079532;28;20719;-72
2022/09/29 10:35:21;;;;;;;10.17;8.13;;;;;;;;;;5081882;28;20189;-74
2022/09/29 10:37:50;;;;;;;10.13;7.87;;;;;;;;;;5057222;28;20856;-74
2022/09/29 10:40:19;;;;;;;10.03;8.80;;;;;;;;;;5084122;28;20212;-74
2022/09/29 10:42:47;;;;;;;10.83;8.90;;;;;;;;;;5057313;28;20177;-72
2022/09/29 10:45:13;;;;;;;9.40;7.83;;;;;;;;;;5078479;28;20229;-78
2022/09/29 10:47:41;;;;;;;10.83;7.50;;;;;;;;;;5076275;28;21456;-73
2022/09/29 10:50:14;;;;;;;11.00;9.90;;;;;;;;;;5074894;28;20217;-76
2022/09/29 10:52:44;;;;;;;10.30;8.33;;;;;;;;;;5076428;28;20216;-73
2022/09/29 10:55:18;;;;;;;11.03;8.37;;;;;;;;;;5070014;28;20187;-73
2022/09/29 10:57:46;;;;;;;9.90;7.93;;;;;;;;;;5072743;28;20211;-73
2022/09/29 11:00:26;;;;;;;9.43;8.00;;;;;;;;;;5070507;28;20284;-73
2022/09/29 11:02:53;;;;;;;9.30;8.20;;;;;;;;;;5074357;28;20191;-73
2022/09/29 11:05:22;;;;;;;8.97;7.97;;;;;;;;;;5077231;28;20212;-74
2022/09/29 11:07:49;;;;;;;11.97;8.30;;;;;;;;;;5076730;28;20193;-74
2022/09/29 11:10:34;;;;;;;11.67;8.50;;;;;;;;;;5075386;28;20204;-73
2022/09/29 11:13:20;;;;;;;10.80;8.50;;;;;;;;;;5075920;28;20563;-75
2022/09/29 11:15:46;;;;;;;11.43;8.43;;;;;;;;;;5076333;28;20265;-74
2022/09/29 11:18:20;;;;;;;11.17;8.77;;;;;;;;;;5073441;28;20216;-74
2022/09/29 11:20:48;;;;;;;11.50;7.73;;;;;;;;;;5071555;28;20254;-74
2022/09/29 11:23:19;;;;;;;11.13;8.83;;;;;;;;;;5075999;28;20177;-75
2022/09/29 11:25:52;;;;;;;8.67;7.13;;;;;;;;;;5059224;28;20181;-75
2022/09/29 11:28:18;;;;;;;8.63;6.63;;;;;;;;;;5077389;28;20263;-74
2022/09/29 11:30:44;;;;;;;8.20;6.00;;;;;;;;;;5073510;28;20754;-75
2022/09/29 11:33:28;;;;;;;7.73;6.00;;;;;;;;;;5072872;28;20244;-75
2022/09/29 11:35:58;;;;;;;11.07;6.87;;;;;;;;;;5077252;28;20301;-75
2022/09/29 11:38:35;;;;;;;8.50;6.83;;;;;;;;;;5075590;28;20204;-78
2022/09/29 11:41:19;;;;;;;10.23;6.37;;;;;;;;;;5076802;28;20204;-76
2022/09/29 11:43:47;;;;;;;10.87;7.83;;;;;;;;;;5077994;28;20709;-75
2022/09/29 11:46:19;;;;;;;9.87;6.33;;;;;;;;;;5075776;28;20180;-75
2022/09/29 11:49:04;;;;;;;7.03;6.00;;;;;;;;;;5056858;28;20189;-75
2022/09/29 11:51:30;;;;;;;7.73;5.57;;;;;;;;;;5074405;28;20287;-75
2022/09/29 11:54:21;;;;;;;7.77;6.33;;;;;;;;;;5074440;28;20181;-73
2022/09/29 11:56:51;;;;;;;6.43;5.53;;;;;;;;;;5055483;28;20204;-74
2022/09/29 11:59:35;;;;;;;8.10;6.00;;;;;;;;;;5068912;28;20192;-74
2022/09/29 12:02:02;;;;;;;9.10;5.50;;;;;;;;;;5072590;28;20231;-73
2022/09/29 12:04:38;;;;;;;7.47;5.47;;;;;;;;;;5074067;28;21027;-74
2022/09/29 12:07:16;;;;;;;7.47;4.90;;;;;;;;;;5070119;28;20211;-73
2022/09/29 12:09:55;;;;;;;7.90;4.37;;;;;;;;;;5074260;28;20212;-73
2022/09/29 12:12:28;;;;;;;8.23;4.90;;;;;;;;;;5040869;28;20214;-74
2022/09/29 12:14:57;;;;;;;6.30;3.87;;;;;;;;;;5038354;28;20192;-74
2022/09/29 12:17:28;;;;;;;7.10;3.67;;;;;;;;;;5056548;28;20212;-75
2022/09/29 12:20:00;;;;;;;5.40;3.93;;;;;;;;;;5056593;28;20292;-74
2022/09/29 12:22:33;;;;;;;6.27;3.93;;;;;;;;;;5044187;28;20177;-75
2022/09/29 12:25:00;;;;;;;5.87;3.83;;;;;;;;;;5057111;28;20185;-75
2022/09/29 12:27:39;;;;;;;5.90;3.50;;;;;;;;;;5025747;28;20198;-76
2022/09/29 12:30:17;;;;;;;4.60;3.50;;;;;;;;;;5048034;28;20238;-76
2022/09/29 12:33:05;;;;;;;4.03;2.60;;;;;;;;;;5032252;28;20222;-75
2022/09/29 12:35:47;;;;;;;4.53;2.63;;;;;;;;;;5045998;28;20200;-76
2022/09/29 12:38:22;;;;;;;5.07;3.43;;;;;;;;;;5053440;28;20215;-75
2022/09/29 12:41:08;;;;;;;8.37;2.90;;;;;;;;;;5073060;28;20224;-76
2022/09/29 12:43:41;;;;;;;4.07;2.80;;;;;;;;;;5073325;28;20590;-75
2022/09/29 12:46:30;;;;;;;6.47;3.30;;;;;;;;;;5073564;28;20280;-75
2022/09/29 12:49:14;;;;;;;4.20;2.83;;;;;;;;;;5076532;28;20723;-76
2022/09/29 12:51:43;;;;;;;5.17;2.50;;;;;;;;;;5073950;28;20704;-76
2022/09/29 12:54:14;;;;;;;4.23;2.37;;;;;;;;;;5076171;28;20172;-76
2022/09/29 12:56:59;;;;;;;4.23;2.80;;;;;;;;;;5078860;28;20426;-76
2022/09/29 12:59:36;;;;;;;3.27;2.50;;;;;;;;;;5077615;28;20699;-76
2022/09/29 13:02:05;;;;;;;4.37;2.60;;;;;;;;;;5059165;28;20504;-76
2022/09/29 13:04:55;;;;;;;5.93;2.80;;;;;;;;;;5075603;28;20184;-76
2022/09/29 13:07:28;;;;;;;5.10;2.60;;;;;;;;;;5077146;28;20565;-76
2022/09/29 13:10:14;;;;;;;4.70;2.50;;;;;;;;;;5077902;28;20196;-75
2022/09/29 13:13:03;;;;;;;5.03;2.50;;;;;;;;;;5061581;28;20560;-76
2022/09/29 13:15:42;;;;;;;4.00;2.13;;;;;;;;;;5041993;28;20204;-76
2022/09/29 13:18:09;;;;;;;2.53;1.77;;;;;;;;;;5077409;28;20254;-75
2022/09/29 13:20:35;;;;;;;4.67;2.30;;;;;;;;;;5077328;28;20687;-76
2022/09/29 13:23:10;;;;;;;5.40;2.17;;;;;;;;;;5078250;28;20275;-76
2022/09/29 13:25:43;;;;;;;2.97;2.33;;;;;;;;;;5077361;28;20267;-75
2022/09/29 13:28:21;;;;;;;6.77;2.50;;;;;;;;;;5078304;28;20180;-76
2022/09/29 13:30:48;;;;;;;6.03;2.50;;;;;;;;;;5078443;28;20209;-76
2022/09/29 13:33:22;;;;;;;4.40;2.40;;;;;;;;;;5078441;28;20331;-76
2022/09/29 13:35:49;;;;;;;4.20;2.60;;;;;;;;;;5057482;28;20288;-76
2022/09/29 13:38:23;;;;;;;7.07;2.80;;;;;;;;;;5077096;28;20204;-76
2022/09/29 13:41:08;;;;;;;5.63;2.77;;;;;;;;;;5078393;28;20635;-76
2022/09/29 13:43:50;;;;;;;5.50;2.67;;;;;;;;;;5080570;28;20203;-75
2022/09/29 13:46:26;;;;;;;4.23;2.63;;;;;;;;;;5073080;28;20263;-74
2022/09/29 13:48:54;;;;;;;4.03;2.57;;;;;;;;;;5076426;28;21597;-75
2022/09/29 13:51:39;;;;;;;4.53;2.90;;;;;;;;;;5059212;28;20223;-74
2022/09/29 13:54:24;;;;;;;5.30;2.60;;;;;;;;;;5058622;28;20644;-73
2022/09/29 13:56:50;;;;;;;4.63;2.57;;;;;;;;;;5078172;28;20220;-77
2022/09/29 13:59:20;;;;;;;3.90;2.50;;;;;;;;;;5074108;28;20216;-75
2022/09/29 14:01:46;;;;;;;3.90;2.43;;;;;;;;;;5056134;28;20276;-75
2022/09/29 14:04:31;;;;;;;3.77;2.30;;;;;;;;;;5072945;28;20538;-76
2022/09/29 14:07:02;;;;;;;4.90;2.63;;;;;;;;;;5057037;28;20189;-75
2022/09/29 14:09:33;;;;;;;3.67;2.40;;;;;;;;;;5077139;28;20203;-75
2022/09/29 14:12:05;;;;;;;4.70;2.80;;;;;;;;;;5081490;28;20181;-76
2022/09/29 14:14:33;;;;;;;3.80;2.53;;;;;;;;;;5083514;28;20189;-76
2022/09/29 14:17:09;;;;;;;4.57;2.70;;;;;;;;;;5083312;28;20250;-76
2022/09/29 14:19:39;;;;;;;6.50;2.90;;;;;;;;;;5084789;28;20180;-76
2022/09/29 14:22:25;;;;;;;5.23;3.50;;;;;;;;;;5081591;28;20168;-76
2022/09/29 14:24:54;;;;;;;5.53;3.93;;;;;;;;;;5080693;28;20589;-76
2022/09/29 14:27:29;;;;;;;5.03;4.27;;;;;;;;;;5078981;28;20238;-73
2022/09/29 14:29:55;;;;;;;8.23;5.57;;;;;;;;;;5081898;28;20605;-75
2022/09/29 14:32:25;;;;;;;7.10;5.10;;;;;;;;;;5087509;28;21008;-75
2022/09/29 14:34:52;;;;;;;6.77;4.77;;;;;;;;;;5078815;28;20268;-75
2022/09/29 14:37:20;;;;;;;6.30;4.80;;;;;;;;;;5085650;28;20204;-76
2022/09/29 14:40:27;;;;;;;7.00;5.03;;;;;;;;;;5086872;28;20727;-75
2022/09/29 14:42:34;;;;;;;7.43;4.70;;;;;;;;;;5079975;28;20181;-75
2022/09/29 14:53:41;;;;;;;7.33;3.93;;;;;;;;;;5080762;28;20191;-74
2022/09/29 14:56:07;;;;;;;5.83;4.60;;;;;;;;;;5081554;28;20216;-75
2022/09/29 14:58:33;;;;;;;9.60;4.37;;;;;;;;;;5075559;28;20212;-76
2022/09/29 15:01:08;;;;;;;5.63;4.30;;;;;;;;;;5080162;28;20303;-74
2022/09/29 15:03:39;;;;;;;16.53;4.70;;;;;;;;;;5067675;28;20897;-76
2022/09/29 15:06:17;;;;;;;8.73;4.67;;;;;;;;;;5073815;28;20242;-76
2022/09/29 15:08:52;;;;;;;8.07;4.00;;;;;;;;;;5079352;28;20181;-75